createdAt,value
2017-09-19T00:01:59.258Z,70.13
2017-09-19T00:04:26.642Z,69.22
2017-09-19T00:06:54.046Z,69.18
2017-09-19T00:09:21.501Z,68.80
2017-09-19T00:11:48.913Z,69.75
2017-09-19T00:14:16.304Z,70.56
2017-09-19T00:16:43.697Z,70.26
2017-09-19T00:19:11.095Z,70.56
2017-09-19T00:21:38.518Z,70.42
2017-09-19T00:24:05.911Z,70.66
2017-09-19T00:26:33.390Z,72.47
2017-09-19T00:29:00.854Z,73.17
2017-09-19T00:31:28.246Z,71.99
2017-09-19T00:33:55.764Z,71.40
2017-09-19T00:36:23.223Z,71.62
2017-09-19T00:38:50.713Z,71.43
2017-09-19T00:41:18.099Z,71.07
2017-09-19T00:43:45.709Z,71.26
2017-09-19T00:46:13.629Z,70.56
2017-09-19T00:48:41.049Z,70.08
2017-09-19T00:51:08.461Z,71.07
2017-09-19T00:53:35.851Z,72.37
2017-09-19T00:56:03.282Z,72.75
2017-09-19T00:58:30.876Z,72.94
2017-09-19T01:00:58.279Z,73.03
2017-09-19T01:03:25.780Z,72.28
2017-09-19T01:05:53.181Z,71.68
2017-09-19T01:08:20.574Z,70.98
2017-09-19T01:10:48.066Z,70.26
2017-09-19T01:13:15.459Z,69.97
2017-09-19T01:15:42.947Z,69.78
2017-09-19T01:18:10.343Z,69.52
2017-09-19T01:20:37.725Z,69.45
2017-09-19T01:23:05.127Z,69.92
2017-09-19T01:25:32.517Z,69.63
2017-09-19T01:27:59.970Z,69.33
2017-09-19T01:30:27.378Z,68.94
2017-09-19T01:32:54.779Z,69.13
2017-09-19T01:35:22.214Z,70.02
2017-09-19T01:37:49.599Z,69.70
2017-09-19T01:40:17.682Z,70.08
2017-09-19T01:42:45.086Z,70.32
2017-09-19T01:45:12.478Z,70.87
2017-09-19T01:47:39.869Z,70.18
2017-09-19T01:50:07.365Z,70.10
2017-09-19T01:52:34.746Z,70.79
2017-09-19T01:55:02.149Z,70.78
2017-09-19T01:57:30.499Z,70.87
2017-09-19T01:59:57.905Z,70.32
2017-09-19T02:02:25.316Z,69.86
2017-09-19T02:04:52.703Z,69.68
2017-09-19T02:07:20.082Z,69.62
2017-09-19T02:09:47.547Z,70.16
2017-09-19T02:12:14.910Z,70.12
2017-09-19T02:14:42.315Z,70.26
2017-09-19T02:17:09.722Z,70.11
2017-09-19T02:19:37.134Z,71.01
2017-09-19T02:22:04.530Z,71.40
2017-09-19T02:24:31.950Z,72.15
2017-09-19T02:26:59.349Z,73.36
2017-09-19T02:29:26.749Z,73.18
2017-09-19T02:31:54.143Z,73.19
2017-09-19T02:34:21.538Z,72.75
2017-09-19T02:36:48.959Z,72.79
2017-09-19T02:39:16.511Z,72.72
2017-09-19T02:41:43.907Z,72.41
2017-09-19T02:44:11.315Z,73.06
2017-09-19T02:46:38.747Z,73.22
2017-09-19T02:49:06.166Z,72.52
2017-09-19T02:51:33.582Z,72.42
2017-09-19T02:54:00.976Z,71.83
2017-09-19T02:56:28.384Z,71.79
2017-09-19T02:58:55.779Z,71.65
2017-09-19T03:01:23.277Z,71.16
2017-09-19T03:03:50.667Z,71.03
2017-09-19T03:06:18.067Z,71.22
2017-09-19T03:08:45.464Z,71.09
2017-09-19T03:11:12.863Z,70.87
2017-09-19T03:13:40.275Z,70.95
2017-09-19T03:16:07.670Z,70.64
2017-09-19T03:18:35.063Z,70.45
2017-09-19T03:21:02.478Z,70.96
2017-09-19T03:23:29.871Z,71.37
2017-09-19T03:25:57.339Z,71.73
2017-09-19T03:28:24.738Z,70.65
2017-09-19T03:30:52.267Z,70.38
2017-09-19T03:33:19.670Z,70.28
2017-09-19T03:35:47.072Z,69.92
2017-09-19T03:38:14.471Z,70.09
2017-09-19T03:40:41.858Z,69.81
2017-09-19T03:43:09.258Z,69.55
2017-09-19T03:45:36.857Z,69.44
2017-09-19T03:48:04.261Z,69.45
2017-09-19T03:50:31.661Z,69.40
2017-09-19T03:52:59.050Z,69.62
2017-09-19T03:55:26.453Z,69.74
2017-09-19T03:57:53.915Z,69.75
2017-09-19T04:00:21.311Z,69.50
2017-09-19T04:02:48.727Z,69.12
2017-09-19T04:05:16.122Z,68.99
2017-09-19T04:07:43.514Z,69.10
2017-09-19T04:10:10.914Z,70.06
2017-09-19T04:12:38.323Z,70.90
2017-09-19T04:15:05.719Z,69.83
2017-09-19T04:17:33.102Z,69.11
2017-09-19T04:20:00.504Z,68.56
2017-09-19T04:22:27.896Z,69.01
2017-09-19T04:27:36.567Z,69.33
2017-09-19T04:30:04.050Z,69.30
2017-09-19T04:32:31.427Z,69.54
2017-09-19T04:34:58.831Z,69.51
2017-09-19T04:37:26.243Z,69.90
2017-09-19T04:39:53.644Z,70.26
2017-09-19T04:42:21.035Z,71.21
2017-09-19T04:44:48.441Z,72.32
2017-09-19T04:47:15.834Z,71.79
2017-09-19T04:49:43.263Z,71.39
2017-09-19T04:52:10.658Z,71.69
2017-09-19T04:54:38.050Z,71.03
2017-09-19T04:57:05.455Z,70.85
2017-09-19T04:59:32.937Z,70.84
2017-09-19T05:02:00.326Z,71.25
2017-09-19T05:04:27.729Z,71.30
2017-09-19T05:06:55.197Z,72.11
2017-09-19T05:09:22.595Z,72.48
2017-09-19T05:11:49.998Z,72.11
2017-09-19T05:14:17.398Z,71.59
2017-09-19T05:16:44.914Z,71.36
2017-09-19T05:19:12.306Z,71.37
2017-09-19T05:21:39.711Z,71.14
2017-09-19T05:24:07.099Z,71.28
2017-09-19T05:26:34.503Z,71.07
2017-09-19T05:29:01.894Z,70.96
2017-09-19T05:31:29.303Z,70.94
2017-09-19T05:33:56.699Z,71.28
2017-09-19T05:36:24.110Z,71.14
2017-09-19T05:38:51.511Z,71.07
2017-09-19T05:41:18.983Z,71.22
2017-09-19T05:43:46.391Z,70.99
2017-09-19T05:46:13.846Z,71.83
2017-09-19T05:48:41.255Z,72.26
2017-09-19T05:51:08.647Z,72.60
2017-09-19T05:53:36.042Z,71.99
2017-09-19T05:56:03.435Z,72.23
2017-09-19T05:58:30.878Z,72.87
2017-09-19T06:00:58.274Z,72.95
2017-09-19T06:03:25.787Z,72.31
2017-09-19T06:05:53.182Z,71.46
2017-09-19T06:08:20.591Z,71.11
2017-09-19T06:10:48.019Z,71.12
2017-09-19T06:13:15.409Z,71.37
2017-09-19T06:15:42.830Z,70.82
2017-09-19T06:18:10.338Z,70.20
2017-09-19T06:20:37.735Z,71.09
2017-09-19T06:23:05.226Z,71.11
2017-09-19T06:25:32.632Z,70.88
2017-09-19T06:28:00.018Z,70.78
2017-09-19T06:30:27.423Z,70.58
2017-09-19T06:32:54.818Z,70.41
2017-09-19T06:35:22.223Z,69.91
2017-09-19T06:37:49.614Z,69.71
2017-09-19T06:40:17.123Z,69.55
2017-09-19T06:42:44.523Z,69.54
2017-09-19T06:45:11.923Z,69.56
2017-09-19T06:47:39.386Z,68.94
2017-09-19T06:50:06.794Z,68.87
2017-09-19T06:52:34.187Z,68.57
2017-09-19T06:55:01.594Z,69.02
2017-09-19T06:57:28.985Z,68.75
2017-09-19T06:59:56.383Z,69.13
2017-09-19T07:02:23.788Z,69.30
2017-09-19T07:04:51.179Z,69.60
2017-09-19T07:07:18.588Z,69.84
2017-09-19T07:09:45.975Z,70.53
2017-09-19T07:12:13.374Z,71.01
2017-09-19T07:14:40.767Z,71.18
2017-09-19T07:17:08.259Z,70.43
2017-09-19T07:19:35.650Z,70.08
2017-09-19T07:22:03.049Z,69.35
2017-09-19T07:24:30.447Z,68.70
2017-09-19T07:26:57.847Z,71.31
2017-09-19T07:29:25.246Z,71.47
2017-09-19T07:31:52.644Z,70.01
2017-09-19T07:34:20.047Z,69.68
2017-09-19T07:36:47.447Z,69.55
2017-09-19T07:39:14.848Z,69.69
2017-09-19T07:41:42.239Z,68.85
2017-09-19T07:44:09.647Z,69.34
2017-09-19T07:46:37.114Z,69.61
2017-09-19T07:49:04.515Z,70.12
2017-09-19T07:51:31.921Z,69.61
2017-09-19T07:53:59.329Z,69.94
2017-09-19T07:56:26.726Z,69.75
2017-09-19T07:58:54.131Z,70.47
2017-09-19T08:01:21.527Z,69.52
2017-09-19T08:03:48.930Z,69.33
2017-09-19T08:06:16.331Z,70.64
2017-09-19T08:08:43.727Z,72.55
2017-09-19T08:11:11.127Z,71.25
2017-09-19T08:13:38.527Z,70.50
2017-09-19T08:16:05.931Z,71.07
2017-09-19T08:18:33.332Z,72.26
2017-09-19T08:21:00.738Z,71.42
2017-09-19T08:23:28.135Z,70.16
2017-09-19T08:25:55.536Z,69.54
2017-09-19T08:28:22.972Z,69.76
2017-09-19T08:30:50.436Z,69.77
2017-09-19T08:33:17.840Z,69.25
2017-09-19T08:35:45.247Z,68.58
2017-09-19T08:38:12.644Z,68.52
2017-09-19T08:40:40.050Z,68.80
2017-09-19T08:43:07.443Z,68.47
2017-09-19T08:45:34.835Z,68.65
2017-09-19T08:48:02.243Z,67.77
2017-09-19T08:50:29.630Z,67.12
2017-09-19T08:52:57.123Z,67.12
2017-09-19T08:55:24.523Z,66.48
2017-09-19T08:57:51.929Z,65.54
2017-09-19T09:00:19.394Z,64.20
2017-09-19T09:02:46.798Z,63.63
2017-09-19T09:05:14.194Z,63.76
2017-09-19T09:07:41.607Z,63.20
2017-09-19T09:10:09.027Z,64.32
2017-09-19T09:12:36.482Z,64.01
2017-09-19T09:15:03.881Z,64.69
2017-09-19T09:17:31.295Z,63.14
2017-09-19T09:19:58.682Z,62.89
2017-09-19T09:22:26.107Z,61.18
2017-09-19T09:24:53.504Z,60.23
2017-09-19T09:27:20.894Z,59.70
2017-09-19T09:29:48.302Z,59.64
2017-09-19T09:32:15.703Z,59.98
2017-09-19T09:34:43.187Z,60.98
2017-09-19T09:37:10.654Z,61.01
2017-09-19T09:39:38.046Z,61.62
2017-09-19T09:42:05.448Z,60.74
2017-09-19T09:44:32.851Z,60.40
2017-09-19T09:47:00.263Z,60.02
2017-09-19T09:49:27.671Z,59.50
2017-09-19T09:51:55.072Z,57.93
2017-09-19T09:54:22.472Z,56.29
2017-09-19T09:56:49.859Z,55.99
2017-09-19T09:59:17.255Z,56.46
2017-09-19T10:01:44.646Z,56.63
2017-09-19T10:04:12.075Z,55.60
2017-09-19T10:06:39.471Z,53.36
2017-09-19T10:09:06.868Z,52.78
2017-09-19T10:11:34.266Z,51.47
2017-09-19T10:14:01.671Z,54.62
2017-09-19T10:16:29.082Z,52.50
2017-09-19T10:18:56.484Z,50.71
2017-09-19T10:21:23.889Z,50.82
2017-09-19T10:23:51.322Z,49.55
2017-09-19T10:26:18.727Z,48.79
2017-09-19T10:28:46.123Z,48.12
2017-09-19T10:31:13.535Z,47.68
2017-09-19T10:33:40.930Z,49.11
2017-09-19T10:36:08.342Z,47.27
2017-09-19T10:38:35.729Z,48.25
2017-09-19T10:41:03.130Z,49.04
2017-09-19T10:43:30.526Z,48.06
2017-09-19T10:45:57.931Z,49.23
2017-09-19T10:48:25.340Z,49.73
2017-09-19T10:50:52.727Z,47.24
2017-09-19T10:53:20.143Z,50.06
2017-09-19T10:55:47.537Z,49.56
2017-09-19T10:58:14.943Z,49.59
2017-09-19T11:00:42.341Z,49.59
2017-09-19T11:03:09.747Z,50.94
2017-09-19T11:05:37.139Z,50.43
2017-09-19T11:08:04.543Z,48.30
2017-09-19T11:10:31.943Z,48.75
2017-09-19T11:12:59.351Z,47.34
2017-09-19T11:15:26.751Z,47.72
2017-09-19T11:17:54.167Z,49.76
2017-09-19T11:20:21.563Z,49.25
2017-09-19T11:22:48.975Z,49.56
2017-09-19T11:25:16.378Z,47.85
2017-09-19T11:27:43.784Z,49.51
2017-09-19T11:30:11.182Z,48.22
2017-09-19T11:32:38.630Z,50.01
2017-09-19T11:35:06.122Z,49.68
2017-09-19T11:37:33.583Z,50.22
2017-09-19T11:40:01.039Z,48.95
2017-09-19T11:42:28.426Z,47.39
2017-09-19T11:44:55.839Z,47.72
2017-09-19T11:47:23.234Z,48.15
2017-09-19T11:49:50.643Z,48.14
2017-09-19T11:52:18.051Z,47.62
2017-09-19T11:54:45.666Z,50.09
2017-09-19T11:57:13.951Z,48.39
2017-09-19T11:59:41.363Z,48.16
2017-09-19T12:02:08.763Z,46.92
2017-09-19T12:04:36.188Z,46.11
2017-09-19T12:07:03.596Z,44.57
2017-09-19T12:09:31.044Z,44.86
2017-09-19T12:11:58.430Z,46.65
2017-09-19T12:14:26.476Z,46.63
2017-09-19T12:16:53.859Z,47.50
2017-09-19T12:19:21.274Z,50.33
2017-09-19T12:21:48.667Z,48.65
2017-09-19T12:24:16.063Z,50.22
2017-09-19T12:26:43.471Z,49.72
2017-09-19T12:29:10.872Z,48.96
2017-09-19T12:31:38.362Z,49.04
2017-09-19T12:34:05.759Z,49.19
2017-09-19T12:36:33.170Z,48.93
2017-09-19T12:39:00.571Z,49.28
2017-09-19T12:41:27.978Z,49.18
2017-09-19T12:43:55.414Z,48.48
2017-09-19T12:46:22.826Z,47.14
2017-09-19T12:48:50.223Z,48.67
2017-09-19T12:51:17.651Z,47.89
2017-09-19T12:53:45.047Z,49.33
2017-09-19T12:56:12.451Z,47.67
2017-09-19T12:58:39.843Z,47.86
2017-09-19T13:01:07.252Z,49.97
2017-09-19T13:03:34.647Z,49.39
2017-09-19T13:06:02.069Z,49.29
2017-09-19T13:08:29.563Z,46.50
2017-09-19T13:10:56.962Z,48.13
2017-09-19T13:13:24.375Z,46.91
2017-09-19T13:15:51.774Z,43.93
2017-09-19T13:18:19.187Z,43.69
2017-09-19T13:20:46.580Z,45.49
2017-09-19T13:23:13.983Z,44.72
2017-09-19T13:25:41.379Z,44.84
2017-09-19T13:28:08.783Z,46.76
2017-09-19T13:30:36.179Z,47.44
2017-09-19T13:33:15.528Z,46.66
2017-09-19T13:35:42.938Z,44.76
2017-09-19T13:38:10.343Z,41.89
2017-09-19T13:40:37.743Z,42.62
2017-09-19T13:43:05.233Z,41.63
2017-09-19T13:45:32.618Z,43.46
2017-09-19T13:48:00.024Z,42.02
2017-09-19T13:50:27.437Z,41.97
2017-09-19T13:52:54.851Z,43.28
2017-09-19T13:55:22.251Z,42.99
2017-09-19T13:57:49.646Z,42.85
2017-09-19T14:00:17.050Z,40.94
2017-09-19T14:02:44.443Z,42.65
2017-09-19T14:05:11.852Z,41.24
2017-09-19T14:07:39.242Z,42.58
2017-09-19T14:10:06.657Z,44.20
2017-09-19T14:12:34.055Z,45.63
2017-09-19T14:15:01.454Z,45.66
2017-09-19T14:17:28.859Z,45.02
2017-09-19T14:19:56.258Z,42.73
2017-09-19T14:22:23.659Z,43.90
2017-09-19T14:24:51.103Z,42.76
2017-09-19T14:27:18.500Z,42.73
2017-09-19T14:29:45.899Z,44.84
2017-09-19T14:32:13.313Z,45.66
2017-09-19T14:34:40.712Z,45.87
2017-09-19T14:37:08.114Z,46.49
2017-09-19T14:39:35.515Z,46.05
2017-09-19T14:42:02.914Z,47.04
2017-09-19T14:44:30.311Z,46.68
2017-09-19T14:46:57.704Z,48.25
2017-09-19T14:49:25.108Z,48.18
2017-09-19T14:51:52.511Z,48.92
2017-09-19T14:54:19.913Z,49.30
2017-09-19T14:56:47.316Z,49.39
2017-09-19T14:59:14.766Z,49.61
2017-09-19T15:01:42.167Z,49.35
2017-09-19T15:04:09.554Z,49.37
2017-09-19T15:06:36.963Z,49.52
2017-09-19T15:09:04.357Z,49.21
2017-09-19T15:11:31.754Z,49.76
2017-09-19T15:13:59.151Z,49.85
2017-09-19T15:16:26.567Z,50.65
2017-09-19T15:18:53.967Z,49.74
2017-09-19T15:21:21.354Z,49.78
2017-09-19T15:23:48.758Z,49.12
2017-09-19T15:26:16.154Z,49.10
2017-09-19T15:28:43.554Z,49.92
2017-09-19T15:31:10.966Z,50.45
2017-09-19T15:33:38.455Z,50.01
2017-09-19T15:36:05.852Z,51.33
2017-09-19T15:38:33.255Z,48.45
2017-09-19T15:41:00.646Z,48.65
2017-09-19T15:43:28.058Z,47.86
2017-09-19T15:45:55.695Z,47.26
2017-09-19T15:48:23.164Z,47.03
2017-09-19T15:50:50.564Z,47.70
2017-09-19T15:53:17.970Z,48.38
2017-09-19T15:55:45.484Z,48.52
2017-09-19T15:58:12.921Z,48.53
2017-09-19T16:00:40.546Z,48.99
2017-09-19T16:03:08.043Z,48.87
2017-09-19T16:05:35.483Z,49.41
2017-09-19T16:08:03.103Z,50.31
2017-09-19T16:10:30.618Z,50.63
2017-09-19T16:12:58.014Z,50.21
2017-09-19T16:15:25.414Z,50.61
2017-09-19T16:17:52.823Z,50.36
2017-09-19T16:20:20.227Z,51.05
2017-09-19T16:22:47.626Z,51.19
2017-09-19T16:25:15.026Z,52.41
2017-09-19T16:27:42.429Z,52.41
2017-09-19T16:30:09.831Z,52.01
2017-09-19T16:32:37.230Z,52.13
2017-09-19T16:35:04.642Z,53.27
2017-09-19T16:37:32.034Z,52.99
2017-09-19T16:39:59.440Z,53.54
2017-09-19T16:42:26.850Z,53.71
2017-09-19T16:44:54.235Z,53.77
2017-09-19T16:47:21.630Z,53.89
2017-09-19T16:49:49.023Z,55.05
2017-09-19T16:52:16.428Z,55.44
2017-09-19T16:54:43.822Z,55.92
2017-09-19T16:57:11.234Z,55.76
2017-09-19T16:59:38.622Z,55.98
2017-09-19T17:02:06.027Z,56.54
2017-09-19T17:04:33.420Z,57.73
2017-09-19T17:07:00.823Z,59.32
2017-09-19T17:09:28.224Z,58.78
2017-09-19T17:11:55.650Z,59.34
2017-09-19T17:14:23.038Z,59.89
2017-09-19T17:16:50.445Z,59.64
2017-09-19T17:19:17.855Z,59.95
2017-09-19T17:21:45.251Z,60.52
2017-09-19T17:24:12.652Z,61.38
2017-09-19T17:26:40.053Z,60.63
2017-09-19T17:29:07.454Z,60.47
2017-09-19T17:31:34.855Z,62.43
2017-09-19T17:34:02.264Z,61.40
2017-09-19T17:36:29.692Z,62.43
2017-09-19T17:38:57.098Z,62.27
2017-09-19T17:41:24.508Z,62.76
2017-09-19T17:43:51.943Z,62.69
2017-09-19T17:46:19.394Z,62.08
2017-09-19T17:48:46.794Z,63.34
2017-09-19T17:51:14.186Z,63.53
2017-09-19T17:53:41.638Z,65.05
2017-09-19T17:56:09.029Z,65.01
2017-09-19T17:58:36.412Z,66.62
2017-09-19T18:01:03.810Z,65.88
2017-09-19T18:03:31.207Z,65.53
2017-09-19T18:05:58.606Z,64.97
2017-09-19T18:08:25.999Z,64.24
2017-09-19T18:10:53.406Z,64.58
2017-09-19T18:13:20.880Z,64.53
2017-09-19T18:18:17.835Z,63.83
2017-09-19T18:20:45.241Z,64.27
2017-09-19T18:23:12.630Z,63.93
2017-09-19T18:25:40.031Z,63.61
2017-09-19T18:28:07.436Z,63.71
2017-09-19T18:30:34.834Z,63.35
2017-09-19T18:33:02.227Z,62.86
2017-09-19T18:35:29.631Z,62.96
2017-09-19T18:37:57.028Z,62.25
2017-09-19T18:40:24.445Z,62.61
2017-09-19T18:42:51.931Z,63.66
2017-09-19T18:45:19.322Z,62.66
2017-09-19T18:47:46.727Z,63.21
2017-09-19T18:50:14.359Z,63.49
2017-09-19T18:52:41.759Z,64.54
2017-09-19T18:55:09.335Z,65.74
2017-09-19T18:57:36.758Z,65.69
2017-09-19T19:00:04.154Z,65.52
2017-09-19T19:02:31.556Z,65.56
2017-09-19T19:04:58.951Z,65.49
2017-09-19T19:07:26.395Z,65.94
2017-09-19T19:09:53.787Z,66.35
2017-09-19T19:12:21.234Z,66.43
2017-09-19T19:14:48.626Z,65.66
2017-09-19T19:17:16.133Z,65.52
2017-09-19T19:19:43.537Z,66.03
2017-09-19T19:22:11.031Z,67.53
2017-09-19T19:24:38.426Z,67.44
2017-09-19T19:27:05.822Z,67.41
2017-09-19T19:29:33.230Z,67.84
2017-09-19T19:32:00.650Z,67.88
2017-09-19T19:34:28.095Z,68.46
2017-09-19T19:36:55.571Z,68.88
2017-09-19T19:39:22.979Z,69.03
2017-09-19T19:41:50.371Z,68.28
2017-09-19T19:44:17.953Z,66.96
2017-09-19T19:46:45.357Z,66.86
2017-09-19T19:49:12.770Z,66.88
2017-09-19T19:51:40.163Z,67.02
2017-09-19T19:54:07.566Z,67.08
2017-09-19T19:56:35.021Z,67.18
2017-09-19T19:59:02.419Z,67.92
2017-09-19T20:01:29.820Z,67.93
2017-09-19T20:03:57.283Z,67.79
2017-09-19T20:06:24.683Z,68.72
2017-09-19T20:08:52.090Z,69.22
2017-09-19T20:11:19.495Z,69.38
2017-09-19T20:13:46.890Z,70.23
2017-09-19T20:16:14.307Z,71.08
2017-09-19T20:18:41.702Z,71.20
2017-09-19T20:21:09.102Z,71.75
2017-09-19T20:23:36.494Z,73.03
2017-09-19T20:26:03.897Z,73.60
2017-09-19T20:28:31.429Z,73.71
2017-09-19T20:30:58.834Z,73.16
2017-09-19T20:33:26.227Z,72.50
2017-09-19T20:35:53.626Z,71.39
2017-09-19T20:38:21.020Z,70.24
2017-09-19T20:40:48.419Z,68.92
2017-09-19T20:43:15.822Z,68.93
2017-09-19T20:45:43.229Z,69.17
2017-09-19T20:48:10.623Z,69.54
2017-09-19T20:50:38.019Z,71.49
2017-09-19T20:53:05.498Z,71.37
2017-09-19T20:55:32.887Z,71.80
2017-09-19T20:58:00.288Z,72.17
2017-09-19T21:00:27.690Z,71.21
2017-09-19T21:02:54.518Z,71.41
2017-09-19T21:05:27.562Z,70.92
2017-09-19T21:08:00.670Z,69.91
2017-09-19T21:10:33.621Z,70.50
2017-09-19T21:13:06.634Z,71.49
2017-09-19T21:15:39.586Z,71.48
2017-09-19T21:18:12.506Z,72.34
2017-09-19T21:20:39.904Z,73.37
2017-09-19T21:23:07.302Z,74.18
2017-09-19T21:25:34.694Z,74.95
2017-09-19T21:28:02.095Z,74.35
2017-09-19T21:30:29.482Z,74.24
2017-09-19T21:32:56.878Z,74.26
2017-09-19T21:35:24.271Z,74.47
2017-09-19T21:37:51.670Z,73.63
2017-09-19T21:40:19.055Z,73.58
2017-09-19T21:42:46.459Z,73.40
2017-09-19T21:45:13.847Z,73.07
2017-09-19T21:47:41.238Z,73.23
2017-09-19T21:50:08.871Z,73.71
2017-09-19T21:52:36.298Z,73.51
2017-09-19T21:55:03.698Z,73.79
2017-09-19T21:57:31.091Z,74.91
2017-09-19T21:59:58.483Z,72.83
2017-09-19T22:02:25.941Z,73.39
2017-09-19T22:04:53.315Z,73.96
2017-09-19T22:07:20.703Z,73.50
2017-09-19T22:09:48.104Z,73.25
2017-09-19T22:12:15.496Z,74.92
2017-09-19T22:14:42.911Z,75.77
2017-09-19T22:17:10.352Z,74.82
2017-09-19T22:19:37.740Z,74.71
2017-09-19T22:22:05.140Z,75.10
2017-09-19T22:24:32.523Z,74.63
2017-09-19T22:26:59.920Z,75.59
2017-09-19T22:29:27.306Z,75.79
2017-09-19T22:31:54.725Z,77.09
2017-09-19T22:34:22.110Z,76.13
2017-09-19T22:36:49.608Z,74.91
2017-09-19T22:39:16.992Z,75.68
2017-09-19T22:41:44.387Z,76.43
2017-09-19T22:44:11.861Z,76.67
2017-09-19T22:46:39.263Z,75.51
2017-09-19T22:49:06.647Z,75.07
2017-09-19T22:51:34.059Z,75.22
2017-09-19T22:54:01.434Z,75.23
2017-09-19T22:56:28.822Z,75.17
2017-09-19T22:58:56.226Z,76.14
2017-09-19T23:01:23.614Z,76.16
2017-09-19T23:03:51.026Z,75.94
2017-09-19T23:06:18.415Z,75.43
2017-09-19T23:08:45.863Z,75.34
2017-09-19T23:11:13.254Z,76.48
2017-09-19T23:13:40.653Z,75.63
2017-09-19T23:16:08.035Z,75.20
2017-09-19T23:18:35.427Z,76.23
2017-09-19T23:21:02.811Z,76.22
2017-09-19T23:23:30.198Z,75.43
2017-09-19T23:25:57.587Z,75.00
2017-09-19T23:28:25.072Z,76.28
2017-09-19T23:30:52.464Z,76.94
2017-09-19T23:33:19.876Z,77.50
2017-09-19T23:41:29.658Z,78.10
2017-09-19T23:43:57.046Z,79.35
2017-09-19T23:46:24.459Z,80.10
2017-09-19T23:48:51.843Z,79.36
2017-09-19T23:51:19.254Z,79.60
2017-09-19T23:53:46.730Z,78.78
2017-09-19T23:56:14.190Z,78.72
2017-09-19T23:58:41.578Z,78.58
